Time;durP1;ratioP1;P1;durP2;ratioP2;P2;SDS_P1;SDS_P2;PMS_P1;PMS_P2;Temp;Humidity;BMP_temperature;BMP_pressure;BME280_temperature;BME280_humidity;BME280_pressure;Samples;Min_cycle;Max_cycle;Signal;HPM_P1;HPM_P2
2022/01/29 00:02:02;;;;;;;;;;;;;;;3.41;54.12;101189.56;4992471;28;19922;-77
2022/01/29 00:04:28;;;;;;;;;;;;;;;3.42;54.26;101188.41;4961152;28;19981;-77
2022/01/29 00:06:53;;;;;;;;;;;;;;;3.45;54.09;101191.22;4991606;28;20296;-77
2022/01/29 00:09:19;;;;;;;;;;;;;;;3.50;54.50;101190.16;5006182;28;20271;-82
2022/01/29 00:11:44;;;;;;;;;;;;;;;3.43;54.56;101182.59;4991466;28;20394;-80
2022/01/29 00:14:10;;;;;;;;;;;;;;;3.45;54.30;101185.75;4993161;28;19918;-81
2022/01/29 00:16:36;;;;;;;;;;;;;;;3.39;55.00;101209.16;5002355;28;19972;-81
2022/01/29 00:19:01;;;;;;;;;;;;;;;3.38;54.70;101195.78;4998868;28;20688;-81
2022/01/29 00:21:27;;;;;;;;;;;;;;;3.37;54.97;101200.47;4990356;28;19925;-81
2022/01/29 00:23:52;;;;;;;;;;;;;;;3.42;55.12;101208.41;4989924;28;20061;-81
2022/01/29 00:26:21;;;;;;;;;;;;;;;3.51;54.68;101213.69;5000541;28;19918;-81
2022/01/29 00:28:46;;;;;;;;;;;;;;;3.50;54.78;101199.19;4992013;28;20423;-81
2022/01/29 00:31:12;;;;;;;;;;;;;;;3.49;54.91;101207.75;4992438;28;19922;-80
2022/01/29 00:33:40;;;;;;;;;;;;;;;3.50;55.06;101193.69;4991669;28;19918;-81
2022/01/29 00:36:05;;;;;;;;;;;;;;;3.49;55.23;101194.84;4991767;28;19922;-81
2022/01/29 00:38:31;;;;;;;;;;;;;;;3.47;55.56;101199.91;4991985;28;19918;-80
2022/01/29 00:40:56;;;;;;;;;;;;;;;3.48;55.67;101197.97;4992572;28;19921;-81
2022/01/29 00:43:22;;;;;;;;;;;;;;;3.44;55.75;101181.41;4992178;28;19981;-81
2022/01/29 00:45:47;;;;;;;;;;;;;;;3.39;56.31;101176.22;4991931;28;19917;-81
2022/01/29 00:48:12;;;;;;;;;;;;;;;3.34;56.59;101179.25;4976557;28;19918;-77
2022/01/29 00:50:38;;;;;;;;;;;;;;;3.40;56.39;101182.50;4991562;28;19925;-77
2022/01/29 00:53:03;;;;;;;;;;;;;;;3.37;56.85;101180.47;4991647;28;19972;-77
2022/01/29 00:55:29;;;;;;;;;;;;;;;3.22;57.27;101171.16;4974569;28;19972;-77
2022/01/29 00:57:54;;;;;;;;;;;;;;;3.25;57.40;101184.16;4991125;28;20016;-76
2022/01/29 01:00:20;;;;;;;;;;;;;;;3.22;57.80;101173.91;4991999;28;20260;-77
2022/01/29 01:02:45;;;;;;;;;;;;;;;3.19;58.01;101178.16;4975031;28;19961;-77
2022/01/29 01:05:10;;;;;;;;;;;;;;;3.14;58.16;101175.72;4991673;28;21918;-77
2022/01/29 01:07:36;;;;;;;;;;;;;;;3.11;58.31;101175.63;4991370;28;19960;-81
2022/01/29 01:10:02;;;;;;;;;;;;;;;3.08;58.45;101181.81;4992048;28;19948;-80
2022/01/29 01:12:27;;;;;;;;;;;;;;;3.03;59.14;101182.13;4994527;28;19918;-81
2022/01/29 01:14:53;;;;;;;;;;;;;;;3.03;58.47;101179.38;4990747;28;19917;-81
2022/01/29 01:17:18;;;;;;;;;;;;;;;3.03;58.69;101190.34;4990872;28;19921;-80
2022/01/29 01:19:44;;;;;;;;;;;;;;;3.09;58.48;101183.41;4993263;28;19913;-80
2022/01/29 01:22:10;;;;;;;;;;;;;;;3.08;58.37;101187.28;4990757;28;20386;-81
2022/01/29 01:24:35;;;;;;;;;;;;;;;3.02;58.28;101188.75;4990272;28;19936;-81
2022/01/29 01:27:00;;;;;;;;;;;;;;;3.02;58.47;101194.22;4991245;28;19925;-81
2022/01/29 01:29:26;;;;;;;;;;;;;;;2.97;58.64;101197.22;4990231;28;19977;-80
2022/01/29 01:31:51;;;;;;;;;;;;;;;2.95;58.96;101188.59;4990183;28;19917;-81
2022/01/29 01:34:21;;;;;;;;;;;;;;;2.90;59.16;101202.56;4975252;28;20395;-81
2022/01/29 01:36:53;;;;;;;;;;;;;;;2.86;59.50;101213.44;4992332;28;19976;-81
2022/01/29 01:39:22;;;;;;;;;;;;;;;2.81;59.82;101208.22;5001305;28;19917;-81
2022/01/29 01:42:07;;;;;;;;;;;;;;;2.77;60.15;101201.88;4973653;28;20017;-80
2022/01/29 01:44:45;;;;;;;;;;;;;;;2.75;60.31;101204.97;4974995;28;19933;-77
2022/01/29 01:47:11;;;;;;;;;;;;;;;2.69;60.56;101197.38;4990647;28;20397;-76
2022/01/29 01:49:36;;;;;;;;;;;;;;;2.67;60.92;101200.47;4991289;28;19917;-77
2022/01/29 01:52:02;;;;;;;;;;;;;;;2.66;60.84;101196.16;4995451;28;19921;-76
2022/01/29 01:54:28;;;;;;;;;;;;;;;2.67;61.23;101196.97;4989891;28;19917;-77
2022/01/29 01:56:53;;;;;;;;;;;;;;;2.69;60.92;101200.91;4990052;28;19918;-77
2022/01/29 01:59:19;;;;;;;;;;;;;;;2.66;61.13;101187.13;4990646;28;19922;-77
2022/01/29 02:01:44;;;;;;;;;;;;;;;2.60;61.43;101215.94;5209668;23;20052;-80
2022/01/29 02:04:12;;;;;;;;;;;;;;;2.63;61.40;101215.25;4993365;28;19929;-81
2022/01/29 02:06:38;;;;;;;;;;;;;;;2.63;61.12;101205.06;5010455;28;20009;-81
2022/01/29 02:09:03;;;;;;;;;;;;;;;2.63;61.81;101215.25;4990752;28;20016;-81
2022/01/29 02:11:30;;;;;;;;;;;;;;;2.60;61.69;101205.78;5008222;28;19987;-81
2022/01/29 02:13:58;;;;;;;;;;;;;;;2.61;62.03;101212.06;4991458;28;19980;-81
2022/01/29 02:16:23;;;;;;;;;;;;;;;2.59;62.13;101198.69;5010112;28;19925;-81
2022/01/29 02:18:49;;;;;;;;;;;;;;;2.57;62.51;101201.03;5008547;28;20366;-81
2022/01/29 02:21:15;;;;;;;;;;;;;;;2.56;62.59;101199.41;5011625;28;19917;-80
2022/01/29 02:23:40;;;;;;;;;;;;;;;2.56;62.47;101202.16;5011519;28;19925;-81
2022/01/29 02:26:06;;;;;;;;;;;;;;;2.57;62.77;101189.25;5008768;28;20397;-81
2022/01/29 02:28:31;;;;;;;;;;;;;;;2.55;62.69;101202.53;5008564;28;19972;-81
2022/01/29 02:31:00;;;;;;;;;;;;;;;2.63;62.64;101199.59;5008731;28;19925;-80
2022/01/29 02:33:26;;;;;;;;;;;;;;;2.60;62.91;101194.81;5023773;28;19943;-81
2022/01/29 02:35:52;;;;;;;;;;;;;;;2.56;62.98;101193.94;5007196;28;20374;-81
2022/01/29 02:38:20;;;;;;;;;;;;;;;2.52;63.59;101201.28;5008869;28;19917;-81
2022/01/29 02:40:57;;;;;;;;;;;;;;;2.49;63.74;101207.47;5008960;28;19970;-77
2022/01/29 02:43:26;;;;;;;;;;;;;;;2.49;63.80;101198.47;5011474;28;19966;-77
2022/01/29 02:45:52;;;;;;;;;;;;;;;2.46;64.23;101202.72;4997593;28;19925;-77
2022/01/29 02:48:18;;;;;;;;;;;;;;;2.48;64.31;101197.66;5017712;28;20283;-77
2022/01/29 02:50:43;;;;;;;;;;;;;;;2.49;64.34;101204.72;4995001;28;19925;-76
2022/01/29 02:53:11;;;;;;;;;;;;;;;2.46;64.48;101210.13;5012079;28;19918;-77
2022/01/29 02:55:37;;;;;;;;;;;;;;;2.40;64.31;101198.63;5011913;28;20161;-77
2022/01/29 02:58:02;;;;;;;;;;;;;;;2.39;64.19;101208.00;4995766;28;20453;-77
2022/01/29 03:00:28;;;;;;;;;;;;;;;2.38;63.47;101214.63;5013636;28;19913;-80
